Time;durP1;ratioP1;P1;durP2;ratioP2;P2;SDS_P1;SDS_P2;PMS_P1;PMS_P2;Temp;Humidity;BMP_temperature;BMP_pressure;BME280_temperature;BME280_humidity;BME280_pressure;Samples;Min_cycle;Max_cycle;Signal;HPM_P1;HPM_P2
2022/08/02 00:01:33;;;;;;;4.53;3.78;;;19.50;99.90;;;;;;2588351;39;22210;31
2022/08/02 00:04:07;;;;;;;6.55;3.40;;;19.50;99.90;;;;;;2585984;54;20759;31
2022/08/02 00:06:39;;;;;;;3.95;3.40;;;19.40;99.90;;;;;;2585781;54;20851;31
2022/08/02 00:09:13;;;;;;;5.30;3.92;;;19.40;99.90;;;;;;2585513;54;20124;31
2022/08/02 00:11:48;;;;;;;3.40;3.10;;;19.40;99.90;;;;;;2585765;54;20832;31
2022/08/02 00:14:19;;;;;;;3.27;2.97;;;19.30;99.90;;;;;;2585876;54;20117;31
2022/08/02 00:16:52;;;;;;;4.07;3.38;;;19.30;99.90;;;;;;2585525;54;20289;31
2022/08/02 00:19:24;;;;;;;4.70;3.35;;;19.40;99.90;;;;;;2585814;54;19942;31
2022/08/02 00:21:59;;;;;;;4.00;3.30;;;19.40;99.90;;;;;;2585800;54;20672;31
2022/08/02 00:24:31;;;;;;;4.15;3.17;;;19.40;99.90;;;;;;2586044;54;21050;31
2022/08/02 00:27:07;;;;;;;4.95;3.30;;;19.40;99.90;;;;;;2586561;47;20929;31
2022/08/02 00:29:39;;;;;;;5.40;3.20;;;19.40;99.90;;;;;;2585679;54;20027;31
2022/08/02 00:32:25;;;;;;;4.03;3.20;;;19.30;99.90;;;;;;2585601;54;20034;31
2022/08/02 00:34:59;;;;;;;5.13;3.83;;;19.40;99.90;;;;;;2586033;54;20057;31
2022/08/02 00:37:32;;;;;;;3.40;3.00;;;19.30;99.90;;;;;;2585779;54;20911;31
2022/08/02 00:40:06;;;;;;;6.03;3.25;;;19.30;99.90;;;;;;2585311;54;20035;31
2022/08/02 00:42:43;;;;;;;3.22;2.92;;;19.30;99.90;;;;;;2585985;54;20965;31
2022/08/02 00:45:15;;;;;;;3.58;3.28;;;19.30;99.90;;;;;;2585699;54;20852;31
2022/08/02 00:47:49;;;;;;;4.32;3.72;;;19.30;99.90;;;;;;2585672;54;20027;31
2022/08/02 00:50:20;;;;;;;3.90;3.30;;;19.30;99.90;;;;;;2585660;54;20948;31
2022/08/02 00:52:51;;;;;;;3.50;3.20;;;19.20;99.90;;;;;;2585627;54;20097;31
2022/08/02 00:55:26;;;;;;;3.60;3.30;;;19.30;99.90;;;;;;2586667;47;20280;31
2022/08/02 00:58:04;;;;;;;4.35;3.45;;;19.20;99.90;;;;;;2585577;54;20231;31
2022/08/02 01:00:36;;;;;;;3.83;3.47;;;19.20;99.90;;;;;;2585465;54;20097;31
2022/08/02 01:03:09;;;;;;;3.97;3.58;;;19.10;99.90;;;;;;2585539;54;20026;31
2022/08/02 01:05:48;;;;;;;4.13;3.65;;;19.10;99.90;;;;;;2590839;47;20144;31
2022/08/02 01:08:40;;;;;;;3.67;3.38;;;19.10;99.90;;;;;;2585520;54;20026;31
2022/08/02 01:11:14;;;;;;;4.25;3.55;;;19.00;99.90;;;;;;2593274;39;21235;31
2022/08/02 01:13:51;;;;;;;3.80;3.40;;;19.00;99.90;;;;;;2585708;54;20745;31
2022/08/02 01:16:25;;;;;;;8.70;3.80;;;19.00;99.90;;;;;;2585508;54;20859;31
2022/08/02 01:19:01;;;;;;;4.10;3.70;;;19.10;99.90;;;;;;2585347;54;20159;31
2022/08/02 01:21:40;;;;;;;3.67;3.30;;;19.00;99.90;;;;;;2586156;54;20265;31
2022/08/02 01:24:23;;;;;;;4.20;3.40;;;19.00;99.90;;;;;;2586292;54;20026;31
2022/08/02 01:27:00;;;;;;;4.10;3.70;;;18.90;99.90;;;;;;2586325;54;20129;31
2022/08/02 01:29:36;;;;;;;5.40;3.70;;;18.80;99.90;;;;;;2591552;46;20349;31
2022/08/02 01:32:12;;;;;;;6.22;3.65;;;18.90;99.90;;;;;;2586460;54;20041;31
2022/08/02 01:34:45;;;;;;;3.60;3.20;;;18.80;99.90;;;;;;2586411;54;20892;31
2022/08/02 01:37:20;;;;;;;4.60;3.90;;;18.80;99.90;;;;;;2604898;46;20924;31
2022/08/02 01:39:53;;;;;;;3.50;3.20;;;18.70;99.90;;;;;;2586234;54;20120;31
2022/08/02 01:42:27;;;;;;;5.90;4.10;;;18.80;99.90;;;;;;2586261;54;20972;31
2022/08/02 01:45:02;;;;;;;4.90;3.90;;;18.70;99.90;;;;;;2589147;46;20070;31
2022/08/02 01:47:37;;;;;;;5.73;3.50;;;18.70;99.90;;;;;;2586067;54;20293;31
2022/08/02 01:50:12;;;;;;;7.05;4.35;;;18.70;99.90;;;;;;2586322;54;20822;31
2022/08/02 01:52:50;;;;;;;4.45;4.05;;;18.60;99.90;;;;;;2587253;46;20811;31
2022/08/02 01:55:25;;;;;;;4.40;3.80;;;18.60;99.90;;;;;;2586322;54;20026;31
2022/08/02 01:58:18;;;;;;;4.97;4.33;;;18.60;99.90;;;;;;2586392;54;20038;31
2022/08/02 02:00:53;;;;;;;6.17;4.53;;;18.50;99.90;;;;;;2586365;54;20887;31
2022/08/02 02:03:29;;;;;;;5.10;4.20;;;18.50;99.90;;;;;;2586319;54;20097;31
2022/08/02 02:06:03;;;;;;;6.10;4.30;;;18.50;99.90;;;;;;2586277;54;20907;31
2022/08/02 02:08:37;;;;;;;5.17;4.27;;;18.40;99.90;;;;;;2586061;54;20057;31
2022/08/02 02:11:08;;;;;;;5.63;4.63;;;18.40;99.90;;;;;;2586176;54;21053;31
2022/08/02 02:14:00;;;;;;;6.70;4.88;;;18.40;99.90;;;;;;2586199;54;20902;31
2022/08/02 02:16:35;;;;;;;6.00;5.10;;;18.40;99.90;;;;;;2586345;54;20076;31
2022/08/02 02:19:07;;;;;;;6.43;5.03;;;18.40;99.90;;;;;;2586121;54;20728;31
2022/08/02 02:21:41;;;;;;;5.70;5.20;;;18.40;99.90;;;;;;2586013;54;20045;31
2022/08/02 02:24:17;;;;;;;5.78;5.13;;;18.40;99.90;;;;;;2586199;54;20026;31
2022/08/02 02:26:50;;;;;;;5.53;4.87;;;18.40;99.90;;;;;;2586422;54;20026;31
2022/08/02 02:29:27;;;;;;;6.55;5.05;;;18.30;99.90;;;;;;2585237;54;20261;31
2022/08/02 02:32:02;;;;;;;5.95;5.40;;;18.30;99.90;;;;;;2586038;54;20959;31
2022/08/02 02:34:39;;;;;;;5.70;5.20;;;18.30;99.90;;;;;;2586001;54;20053;31
2022/08/02 02:37:16;;;;;;;6.03;5.32;;;18.20;99.90;;;;;;2586110;54;19935;31
2022/08/02 02:39:47;;;;;;;5.90;5.10;;;18.20;99.90;;;;;;2586011;54;20053;31
2022/08/02 02:42:20;;;;;;;8.48;4.88;;;18.20;99.90;;;;;;2586236;54;20027;31
2022/08/02 02:44:57;;;;;;;6.30;5.70;;;18.20;99.90;;;;;;2585796;54;20920;31
2022/08/02 02:47:34;;;;;;;6.22;5.63;;;18.10;99.90;;;;;;2585843;54;20032;31
2022/08/02 02:50:14;;;;;;;6.18;5.57;;;18.10;99.90;;;;;;2586268;54;20298;31
2022/08/02 02:52:46;;;;;;;6.20;5.50;;;18.10;99.90;;;;;;2586107;54;19942;31
2022/08/02 02:55:19;;;;;;;6.60;5.90;;;18.10;99.90;;;;;;2585272;54;21054;31
2022/08/02 02:57:51;;;;;;;6.28;5.68;;;18.10;99.90;;;;;;2586020;54;20875;31
2022/08/02 03:01:26;;;;;;;6.05;5.18;;;18.00;99.90;;;;;;2585379;54;20033;31
2022/08/02 03:03:19;;;;;;;5.80;5.20;;;18.10;99.90;;;;;;2585741;54;19949;31
2022/08/02 03:05:56;;;;;;;6.05;5.45;;;18.00;99.90;;;;;;2585073;54;20022;31
2022/08/02 03:08:28;;;;;;;6.63;5.20;;;17.90;99.90;;;;;;2586014;54;20953;31
2022/08/02 03:11:01;;;;;;;6.03;5.43;;;17.90;99.90;;;;;;2586118;54;20988;31
2022/08/02 03:13:35;;;;;;;5.57;4.97;;;17.90;99.90;;;;;;2586060;54;20030;31
2022/08/02 03:16:07;;;;;;;6.80;6.20;;;17.90;99.90;;;;;;2604775;46;20057;31
2022/08/02 03:18:43;;;;;;;9.35;6.55;;;17.80;99.90;;;;;;2586132;54;20077;31
2022/08/02 03:21:18;;;;;;;7.13;5.93;;;17.80;99.90;;;;;;2585947;54;20085;31
2022/08/02 03:23:49;;;;;;;9.00;6.70;;;17.70;99.90;;;;;;2586127;54;20843;31
2022/08/02 03:26:24;;;;;;;7.05;6.10;;;17.80;99.90;;;;;;2592755;46;20949;31
2022/08/02 03:28:55;;;;;;;6.80;6.10;;;17.70;99.90;;;;;;2585932;54;20031;31
2022/08/02 03:31:28;;;;;;;7.90;6.83;;;17.70;99.90;;;;;;2604299;46;20123;31
2022/08/02 03:34:04;;;;;;;;;;;17.70;99.90;;;;;;2586279;54;20276;31
2022/08/02 03:36:36;;;;;;;7.43;6.35;;;17.70;99.90;;;;;;2585823;54;20049;31
2022/08/02 03:39:08;;;;;;;8.13;7.18;;;17.70;99.90;;;;;;2585887;54;20861;31
2022/08/02 03:41:42;;;;;;;8.32;6.75;;;17.60;99.90;;;;;;2585908;54;20093;31
2022/08/02 03:44:13;;;;;;;7.30;6.70;;;17.60;99.90;;;;;;2595400;46;20824;31
2022/08/02 03:46:46;;;;;;;10.35;7.40;;;17.60;99.90;;;;;;2585702;54;20045;31
2022/08/02 03:49:22;;;;;;;8.68;7.78;;;17.60;99.90;;;;;;2586825;46;20026;31
2022/08/02 03:51:55;;;;;;;8.00;7.18;;;17.50;99.90;;;;;;2591406;46;20027;31
2022/08/02 03:54:30;;;;;;;8.60;7.50;;;17.60;99.90;;;;;;2585835;54;20085;31
2022/08/02 03:57:18;;;;;;;8.27;7.43;;;17.50;99.90;;;;;;2604854;46;20034;31
2022/08/02 03:59:53;;;;;;;7.78;6.97;;;17.60;99.90;;;;;;2585673;54;20943;31
2022/08/02 04:02:24;;;;;;;11.00;7.15;;;17.60;99.90;;;;;;2585963;54;20779;31
2022/08/02 04:05:01;;;;;;;6.80;6.20;;;17.70;99.90;;;;;;2586170;54;20029;31
2022/08/02 04:07:35;;;;;;;7.80;7.05;;;17.80;99.90;;;;;;2585914;54;20909;31
2022/08/02 04:10:27;;;;;;;7.25;6.55;;;17.90;99.90;;;;;;2586024;54;20069;31
2022/08/02 04:12:59;;;;;;;7.85;6.50;;;18.00;99.90;;;;;;2586053;54;20857;31
2022/08/02 04:15:31;;;;;;;8.37;7.57;;;18.00;99.90;;;;;;2585826;54;20903;31
2022/08/02 04:18:03;;;;;;;8.87;7.27;;;18.10;99.90;;;;;;2585687;54;20906;31
2022/08/02 04:20:40;;;;;;;8.75;7.45;;;18.10;99.90;;;;;;2594070;46;20023;31
2022/08/02 04:23:12;;;;;;;8.93;7.20;;;18.20;99.90;;;;;;2585756;54;20030;31
2022/08/02 04:25:44;;;;;;;9.02;7.90;;;18.30;99.90;;;;;;2585810;54;20026;31
2022/08/02 04:28:18;;;;;;;9.00;8.05;;;18.40;99.90;;;;;;2585365;54;20073;31
2022/08/02 04:31:05;;;;;;;8.60;6.95;;;18.40;99.90;;;;;;2585936;54;19935;31
2022/08/02 04:33:37;;;;;;;7.90;7.10;;;18.60;99.90;;;;;;2585870;54;20026;31
2022/08/02 04:36:14;;;;;;;10.07;7.05;;;18.70;99.90;;;;;;2585857;54;20045;31
2022/08/02 04:39:04;;;;;;;8.40;6.55;;;18.90;99.90;;;;;;2585667;54;20890;31
2022/08/02 04:41:41;;;;;;;8.10;6.65;;;19.10;99.90;;;;;;2586534;47;20083;31
2022/08/02 04:44:16;;;;;;;7.00;6.30;;;19.30;99.90;;;;;;2585611;54;20821;31
2022/08/02 04:46:49;;;;;;;8.20;5.90;;;19.50;99.90;;;;;;2585717;54;20104;31
2022/08/02 04:49:20;;;;;;;9.30;5.95;;;19.70;99.90;;;;;;2586541;47;20797;31
2022/08/02 04:51:55;;;;;;;9.50;6.30;;;20.00;99.90;;;;;;2585827;54;20060;31
2022/08/02 04:54:29;;;;;;;7.85;6.20;;;20.20;99.90;;;;;;2585859;54;20026;31
2022/08/02 04:57:53;;;;;;;10.33;5.50;;;20.40;99.90;;;;;;2586184;54;20019;31
2022/08/02 04:59:52;;;;;;;6.05;4.93;;;20.60;99.90;;;;;;2586496;54;20901;31
2022/08/02 05:02:28;;;;;;;6.70;5.05;;;20.90;99.90;;;;;;2586567;54;20741;31
2022/08/02 05:05:00;;;;;;;5.75;5.25;;;21.10;99.90;;;;;;2586526;54;20899;31
2022/08/02 05:07:41;;;;;;;7.25;4.10;;;21.20;99.90;;;;;;2586363;54;20031;31
2022/08/02 05:10:13;;;;;;;7.38;5.20;;;21.30;99.90;;;;;;2586347;54;20966;31
2022/08/02 05:12:48;;;;;;;7.75;5.40;;;21.60;99.90;;;;;;2586517;54;20072;31
2022/08/02 05:15:23;;;;;;;6.05;5.45;;;21.80;99.90;;;;;;2586632;54;20891;31
2022/08/02 05:17:56;;;;;;;5.50;5.00;;;21.90;99.90;;;;;;2586592;54;20109;31
2022/08/02 05:20:29;;;;;;;5.65;4.40;;;22.00;99.90;;;;;;2587413;46;20026;31
2022/08/02 05:23:05;;;;;;;5.65;4.50;;;22.20;99.90;;;;;;2586861;54;20848;31
2022/08/02 05:25:39;;;;;;;9.45;4.88;;;22.40;99.90;;;;;;2586438;54;20052;31
2022/08/02 05:28:13;;;;;;;5.00;4.50;;;22.70;99.90;;;;;;2586453;54;20936;31
2022/08/02 05:30:45;;;;;;;5.05;4.32;;;22.90;99.90;;;;;;2587391;46;20139;31
2022/08/02 05:33:21;;;;;;;6.80;4.63;;;23.00;99.90;;;;;;2587446;46;20842;31
2022/08/02 05:35:57;;;;;;;6.53;4.40;;;23.10;99.90;;;;;;2604540;46;20085;31
2022/08/02 05:38:39;;;;;;;6.40;3.90;;;23.40;99.90;;;;;;2586473;54;20128;31
2022/08/02 05:41:12;;;;;;;5.00;4.50;;;23.60;99.90;;;;;;2586568;54;20900;31
2022/08/02 05:43:46;;;;;;;4.03;3.60;;;23.80;99.90;;;;;;2586397;54;20045;31
2022/08/02 05:46:23;;;;;;;8.90;4.30;;;23.90;99.90;;;;;;2586682;54;20038;31
2022/08/02 05:48:55;;;;;;;4.03;3.57;;;24.10;99.90;;;;;;2586350;54;19934;31
2022/08/02 05:51:35;;;;;;;5.50;4.80;;;24.40;99.90;;;;;;2605114;46;20026;31
2022/08/02 05:54:15;;;;;;;4.32;3.83;;;24.50;99.90;;;;;;2586290;54;20936;31
2022/08/02 05:59:59;;;;;;;5.38;4.15;;;24.90;99.90;;;;;;2646706;53;20103;31
2022/08/02 06:03:06;;;;;;;5.97;3.88;;;25.10;99.90;;;;;;2607364;54;20022;31
2022/08/02 06:05:43;;;;;;;5.80;3.80;;;25.20;99.90;;;;;;2615036;46;20061;31
2022/08/02 06:08:18;;;;;;;8.25;4.35;;;25.20;99.90;;;;;;2607818;54;21200;31
2022/08/02 06:10:55;;;;;;;7.55;4.00;;;25.30;99.90;;;;;;2607429;54;20041;31
2022/08/02 06:13:30;;;;;;;20.58;11.13;;;25.20;99.90;;;;;;2615398;46;20041;31
2022/08/02 06:16:09;;;;;;;8.07;6.03;;;25.30;99.90;;;;;;2607540;54;20031;31
2022/08/02 06:18:47;;;;;;;6.63;4.55;;;25.40;99.90;;;;;;2607257;54;20042;31
2022/08/02 06:21:23;;;;;;;4.05;3.65;;;25.50;99.90;;;;;;2607392;54;20018;31
2022/08/02 06:24:20;;;;;;;8.15;3.53;;;25.80;99.90;;;;;;2607390;54;20842;31
2022/08/02 06:26:56;;;;;;;5.57;3.80;;;26.00;99.90;;;;;;2607141;54;20809;31
2022/08/02 06:29:31;;;;;;;5.47;2.90;;;26.20;99.90;;;;;;2607268;54;21584;31
2022/08/02 06:32:14;;;;;;;6.35;3.85;;;26.50;99.90;;;;;;2607239;54;20026;31
2022/08/02 06:34:49;;;;;;;4.00;3.70;;;26.70;99.90;;;;;;2607196;54;20089;31
2022/08/02 06:37:30;;;;;;;4.70;3.35;;;26.90;99.90;;;;;;2607521;54;20026;31
2022/08/02 06:40:11;;;;;;;4.55;3.30;;;27.00;99.90;;;;;;2607097;54;20172;31
2022/08/02 06:42:50;;;;;;;8.38;3.42;;;27.10;99.90;;;;;;2607153;54;20847;31
2022/08/02 06:45:25;;;;;;;7.00;3.50;;;27.20;99.90;;;;;;2607174;54;20100;31
2022/08/02 06:48:03;;;;;;;5.00;3.53;;;27.50;99.90;;;;;;2606775;54;20959;31
2022/08/02 06:50:40;;;;;;;3.80;2.80;;;27.50;99.90;;;;;;2607312;54;20026;31
2022/08/02 06:53:16;;;;;;;3.90;2.90;;;27.70;99.90;;;;;;2607123;54;20132;31
2022/08/02 06:55:51;;;;;;;4.22;3.22;;;27.90;99.90;;;;;;2607090;54;20809;31
2022/08/02 06:58:26;;;;;;;;;;;28.00;99.90;;;;;;2606665;54;20932;31
2022/08/02 07:01:01;;;;;;;3.20;2.90;;;27.90;99.90;;;;;;2607042;54;20791;31
2022/08/02 07:03:39;;;;;;;;;;;27.70;99.90;;;;;;2607617;54;20030;31
2022/08/02 07:06:14;;;;;;;5.25;3.40;;;27.30;99.90;;;;;;2607291;54;19934;31
2022/08/02 07:08:48;;;;;;;6.45;3.22;;;27.30;99.90;;;;;;2607026;54;20062;31
2022/08/02 07:11:44;;;;;;;4.13;2.53;;;27.30;99.90;;;;;;2603716;54;20044;31
2022/08/02 07:14:20;;;;;;;3.70;2.75;;;27.30;99.90;;;;;;2603443;54;20041;31
2022/08/02 07:16:57;;;;;;;3.47;2.67;;;27.40;99.90;;;;;;2622310;46;20819;31
2022/08/02 07:19:37;;;;;;;4.13;2.50;;;27.70;99.90;;;;;;2603435;54;20918;31
2022/08/02 07:22:11;;;;;;;3.85;2.67;;;27.90;99.90;;;;;;2603600;54;21084;31
2022/08/02 07:24:46;;;;;;;4.30;2.20;;;28.00;99.90;;;;;;2617999;39;20470;31
2022/08/02 07:27:21;;;;;;;6.53;2.60;;;28.20;99.90;;;;;;2603411;54;20161;31
2022/08/02 07:29:57;;;;;;;4.13;2.33;;;28.40;99.90;;;;;;2603465;54;20068;31
2022/08/02 07:32:33;;;;;;;5.40;2.20;;;28.20;99.90;;;;;;2603638;54;20140;31
2022/08/02 07:35:13;;;;;;;3.73;2.30;;;28.30;99.90;;;;;;2603405;54;20066;31
2022/08/02 07:37:54;;;;;;;2.90;2.30;;;28.60;99.90;;;;;;2621997;46;20030;31
2022/08/02 07:40:35;;;;;;;2.45;2.10;;;28.60;99.90;;;;;;2603372;54;20140;31
2022/08/02 07:43:10;;;;;;;2.83;1.77;;;28.70;99.90;;;;;;2603637;54;20033;31
2022/08/02 07:45:45;;;;;;;3.05;1.70;;;28.80;99.90;;;;;;2608652;46;20030;31
2022/08/02 07:48:34;;;;;;;4.43;2.17;;;29.00;99.90;;;;;;2603590;54;20798;31
2022/08/02 07:51:14;;;;;;;4.75;1.90;;;29.20;99.90;;;;;;2604434;46;20868;31
2022/08/02 07:53:52;;;;;;;3.03;2.00;;;29.30;99.90;;;;;;2621692;46;20893;31
2022/08/02 07:56:39;;;;;;;2.72;1.75;;;29.50;99.90;;;;;;2603259;54;20027;31
2022/08/02 07:59:13;;;;;;;;;;;29.60;99.90;;;;;;2603802;54;20077;31
2022/08/02 08:01:50;;;;;;;4.13;1.38;;;29.70;99.90;;;;;;2603289;54;19997;31
2022/08/02 08:04:28;;;;;;;3.77;1.13;;;29.80;99.90;;;;;;2603385;54;20026;31
2022/08/02 08:07:09;;;;;;;1.55;1.00;;;29.90;99.90;;;;;;2603635;54;20056;31
2022/08/02 08:09:49;;;;;;;2.45;1.00;;;30.10;99.90;;;;;;2603382;54;20876;31
2022/08/02 08:12:28;;;;;;;1.20;1.10;;;30.10;99.90;;;;;;2604957;46;20030;31
2022/08/02 08:15:03;;;;;;;3.38;1.40;;;30.10;99.90;;;;;;2603549;54;20913;31
2022/08/02 08:17:39;;;;;;;3.40;1.27;;;30.20;99.90;;;;;;2603319;54;20910;31
2022/08/02 08:20:15;;;;;;;1.00;0.90;;;29.80;99.90;;;;;;2604263;46;21085;31
2022/08/02 08:22:53;;;;;;;1.48;0.80;;;29.50;99.90;;;;;;2602976;54;20022;31
2022/08/02 08:25:29;;;;;;;2.67;0.87;;;29.30;99.90;;;;;;2603540;54;20027;31
2022/08/02 08:28:13;;;;;;;2.50;0.90;;;28.90;99.90;;;;;;2603272;54;20022;31
2022/08/02 08:30:48;;;;;;;2.00;0.95;;;29.00;99.90;;;;;;2603492;54;20163;31
2022/08/02 08:33:28;;;;;;;3.55;0.85;;;29.00;99.90;;;;;;2701743;39;21382;31
2022/08/02 08:36:05;;;;;;;3.30;0.80;;;29.10;99.90;;;;;;2603480;54;20045;31
2022/08/02 08:38:44;;;;;;;1.90;1.00;;;29.20;99.90;;;;;;2603466;54;20191;31
2022/08/02 08:41:22;;;;;;;2.22;0.93;;;29.40;99.90;;;;;;2603275;54;20822;31
2022/08/02 08:43:59;;;;;;;5.35;0.88;;;29.60;99.90;;;;;;2603291;54;20842;31
2022/08/02 08:46:34;;;;;;;1.70;0.90;;;29.70;99.90;;;;;;2603498;54;20085;31
2022/08/02 08:49:14;;;;;;;2.15;0.90;;;29.70;99.90;;;;;;2603373;54;25141;31
2022/08/02 08:51:50;;;;;;;2.45;0.90;;;29.30;99.90;;;;;;2604093;46;20915;31
2022/08/02 08:54:30;;;;;;;1.20;0.90;;;29.10;99.90;;;;;;2603146;54;20928;31
2022/08/02 08:57:06;;;;;;;1.38;0.60;;;29.30;99.90;;;;;;2603261;54;20031;31
2022/08/02 08:59:45;;;;;;;2.88;0.75;;;29.30;99.90;;;;;;2603169;54;20841;31
2022/08/02 09:02:20;;;;;;;2.85;1.13;;;29.20;99.90;;;;;;2603529;54;20048;31
2022/08/02 09:05:00;;;;;;;2.50;0.80;;;29.10;99.90;;;;;;2603305;54;20022;31
2022/08/02 09:07:36;;;;;;;1.35;1.05;;;29.20;99.90;;;;;;2603199;54;20034;31
2022/08/02 09:10:42;;;;;;;1.75;0.63;;;29.50;99.90;;;;;;2603390;54;20821;31
2022/08/02 09:13:19;;;;;;;3.35;1.13;;;29.60;99.90;;;;;;2602920;54;20022;31
2022/08/02 09:16:14;;;;;;;1.63;0.73;;;29.60;99.90;;;;;;2603403;54;20042;31
2022/08/02 09:18:50;;;;;;;3.13;0.70;;;29.80;98.90;;;;;;2603339;54;20034;31
2022/08/02 09:21:26;;;;;;;0.75;0.57;;;29.90;99.20;;;;;;2603255;54;20030;31
2022/08/02 09:23:59;;;;;;;;;;;30.10;99.40;;;;;;2603445;54;20022;31
2022/08/02 09:26:37;;;;;;;0.90;0.65;;;29.90;98.10;;;;;;2603071;54;19946;31
2022/08/02 09:29:13;;;;;;;1.42;0.80;;;29.80;97.80;;;;;;2603292;54;20853;31
2022/08/02 09:31:47;;;;;;;2.42;0.80;;;29.90;99.00;;;;;;2603276;54;20049;31
2022/08/02 09:34:24;;;;;;;0.88;0.60;;;30.10;96.90;;;;;;2603202;54;20027;31
2022/08/02 09:37:00;;;;;;;1.93;0.50;;;30.30;96.90;;;;;;2603066;54;20161;31
2022/08/02 09:39:34;;;;;;;1.20;0.60;;;30.50;96.20;;;;;;2602962;54;20113;31
2022/08/02 09:42:19;;;;;;;0.95;0.45;;;30.50;95.60;;;;;;2603095;54;20038;31
2022/08/02 09:44:54;;;;;;;2.25;0.60;;;30.60;94.90;;;;;;2622063;46;20898;31
2022/08/02 09:47:31;;;;;;;3.00;0.57;;;30.70;95.00;;;;;;2621654;46;20026;31
2022/08/02 09:50:12;;;;;;;1.40;0.50;;;30.80;94.50;;;;;;2621817;46;20057;31
2022/08/02 09:52:49;;;;;;;0.93;0.50;;;30.80;93.70;;;;;;2603210;54;20941;31
2022/08/02 09:55:23;;;;;;;2.60;0.75;;;30.50;94.30;;;;;;2603151;54;20022;31
2022/08/02 09:58:17;;;;;;;1.60;0.67;;;30.50;94.30;;;;;;2603403;54;20033;31
2022/08/02 10:00:57;;;;;;;0.60;0.50;;;30.40;94.30;;;;;;2602982;54;21221;31
2022/08/02 10:03:32;;;;;;;1.63;0.50;;;30.20;94.10;;;;;;2603119;54;20845;31
2022/08/02 10:06:10;;;;;;;1.80;1.00;;;30.20;94.20;;;;;;2621259;47;20136;31
2022/08/02 10:08:43;;;;;;;3.35;0.60;;;30.30;94.70;;;;;;2609345;39;20934;31
2022/08/02 10:11:18;;;;;;;1.35;0.63;;;30.30;94.20;;;;;;2602985;54;20109;31
2022/08/02 10:13:57;;;;;;;1.00;0.60;;;30.00;94.80;;;;;;2621586;47;20023;31
2022/08/02 10:16:31;;;;;;;2.10;0.80;;;29.80;94.40;;;;;;2603176;54;20038;31
2022/08/02 10:19:06;;;;;;;1.40;0.88;;;29.60;95.40;;;;;;2603923;47;20023;31
2022/08/02 10:21:44;;;;;;;4.13;0.77;;;29.60;94.40;;;;;;2602882;54;20048;31
2022/08/02 10:24:22;;;;;;;2.25;0.80;;;29.40;94.30;;;;;;2621393;47;20076;31
2022/08/02 10:26:57;;;;;;;1.08;0.50;;;29.40;94.90;;;;;;2602830;54;20027;31
2022/08/02 10:29:36;;;;;;;;;;;29.60;95.30;;;;;;2603327;54;20037;31
2022/08/02 10:32:30;;;;;;;2.05;0.68;;;29.70;95.70;;;;;;2604097;47;20870;31
2022/08/02 10:35:08;;;;;;;1.60;0.70;;;29.70;94.10;;;;;;2602717;54;20030;31
2022/08/02 10:37:59;;;;;;;2.38;0.70;;;29.50;94.00;;;;;;2604022;47;19942;31
2022/08/02 10:40:49;;;;;;;3.95;0.98;;;29.40;95.60;;;;;;2602804;54;20892;31
2022/08/02 10:43:46;;;;;;;1.17;0.77;;;29.20;95.40;;;;;;2603064;54;20026;31
2022/08/02 10:46:34;;;;;;;2.42;0.70;;;29.10;94.20;;;;;;2603296;54;20023;31
2022/08/02 10:49:11;;;;;;;1.10;0.60;;;29.00;93.90;;;;;;2603724;54;20034;31
2022/08/02 10:52:31;;;;;;;2.08;0.88;;;28.90;94.80;;;;;;2603625;54;21021;31
2022/08/02 10:55:13;;;;;;;2.90;0.70;;;28.80;95.50;;;;;;2608763;46;20845;31
2022/08/02 10:58:18;;;;;;;1.95;0.95;;;28.90;95.80;;;;;;2622302;46;20092;31
2022/08/02 11:00:53;;;;;;;1.70;0.90;;;29.10;94.30;;;;;;2603671;54;20895;31
2022/08/02 11:03:46;;;;;;;1.37;0.60;;;29.20;93.60;;;;;;2603619;54;20104;31
2022/08/02 11:06:22;;;;;;;1.30;0.80;;;29.30;94.10;;;;;;2603815;54;20031;31
2022/08/02 11:09:30;;;;;;;2.40;0.55;;;29.40;94.40;;;;;;2603460;54;20110;31
2022/08/02 11:12:05;;;;;;;3.13;1.20;;;29.50;93.30;;;;;;2604157;46;20921;31
2022/08/02 11:14:41;;;;;;;2.45;0.95;;;29.40;93.10;;;;;;2603589;54;20022;31
2022/08/02 11:17:15;;;;;;;;;;;29.20;94.50;;;;;;2603954;54;20030;31
2022/08/02 11:20:21;;;;;;;3.58;1.15;;;28.90;94.80;;;;;;2622389;46;20805;31
2022/08/02 11:22:57;;;;;;;1.42;0.70;;;28.70;94.60;;;;;;2603286;54;20846;31
2022/08/02 11:25:35;;;;;;;1.80;0.80;;;28.70;95.10;;;;;;2603529;54;20778;31
2022/08/02 11:28:32;;;;;;;3.10;0.60;;;28.80;94.30;;;;;;2603639;54;20045;31
2022/08/02 11:31:06;;;;;;;2.22;0.65;;;28.90;94.10;;;;;;2603549;54;20050;31
2022/08/02 11:33:41;;;;;;;1.27;0.80;;;28.80;94.80;;;;;;2603736;54;20030;31
2022/08/02 11:36:24;;;;;;;2.77;0.90;;;28.70;93.20;;;;;;2603584;54;20071;31
2022/08/02 11:38:58;;;;;;;1.45;0.80;;;28.70;95.00;;;;;;2603563;54;20026;31
2022/08/02 11:41:35;;;;;;;1.70;0.70;;;28.80;94.50;;;;;;2603713;54;20901;31
2022/08/02 11:44:22;;;;;;;;;;;28.50;93.60;;;;;;2603711;54;21143;31
2022/08/02 11:47:02;;;;;;;2.20;0.70;;;28.40;94.60;;;;;;2603517;54;19943;31
2022/08/02 11:49:34;;;;;;;3.17;1.00;;;28.60;94.60;;;;;;2607623;46;20033;31
2022/08/02 11:52:12;;;;;;;2.25;0.75;;;28.60;94.50;;;;;;2603274;54;20026;31
2022/08/02 11:54:48;;;;;;;3.25;0.90;;;28.80;93.60;;;;;;2603459;54;20053;31
2022/08/02 11:57:24;;;;;;;3.30;0.90;;;28.80;95.00;;;;;;2603495;54;20026;31
2022/08/02 12:00:00;;;;;;;2.45;1.25;;;28.90;94.80;;;;;;2605460;54;21048;31
2022/08/02 12:02:47;;;;;;;;;;;28.90;94.80;;;;;;2603738;54;20049;31
2022/08/02 12:05:23;;;;;;;3.63;0.93;;;29.00;93.20;;;;;;2603757;54;20291;31
2022/08/02 12:08:23;;;;;;;;;;;29.10;94.90;;;;;;2603625;54;20056;31
2022/08/02 12:10:57;;;;;;;2.35;0.70;;;29.10;94.00;;;;;;2604615;46;19937;31
2022/08/02 12:13:43;;;;;;;1.38;0.85;;;29.20;94.40;;;;;;2603527;54;20844;31
2022/08/02 12:19:25;;;;;;;4.25;0.88;;;29.30;93.00;;;;;;2622256;46;20026;31
2022/08/02 12:22:13;;;;;;;4.93;0.90;;;29.40;93.80;;;;;;2603604;54;20161;31
2022/08/02 12:24:48;;;;;;;1.10;0.70;;;29.30;92.10;;;;;;2603340;54;20907;31
2022/08/02 12:27:36;;;;;;;2.25;0.98;;;29.30;92.60;;;;;;2603727;54;20942;31
2022/08/02 12:30:12;;;;;;;1.73;0.80;;;29.40;94.20;;;;;;2621993;46;20855;31
2022/08/02 12:32:45;;;;;;;2.28;0.70;;;29.30;93.80;;;;;;2603497;54;20026;31
2022/08/02 12:35:20;;;;;;;2.95;0.70;;;29.40;92.70;;;;;;2603499;54;20026;31
2022/08/02 12:38:00;;;;;;;0.75;0.50;;;29.30;91.90;;;;;;2603264;54;20093;31
2022/08/02 12:40:37;;;;;;;5.30;1.58;;;29.40;92.20;;;;;;2603143;54;20022;31
2022/08/02 12:43:19;;;;;;;1.30;0.80;;;29.30;93.00;;;;;;2603297;54;20097;31
2022/08/02 12:45:56;;;;;;;1.40;0.80;;;29.30;92.90;;;;;;2603428;54;20912;31
2022/08/02 12:48:35;;;;;;;2.17;0.85;;;29.30;93.00;;;;;;2603271;54;20057;31
2022/08/02 12:51:25;;;;;;;5.15;0.90;;;29.20;93.00;;;;;;2603210;54;20061;31
2022/08/02 12:54:22;;;;;;;1.52;0.75;;;29.20;93.20;;;;;;2603257;54;20055;31
2022/08/02 12:57:13;;;;;;;2.88;0.93;;;29.20;92.90;;;;;;2603582;54;20829;31
2022/08/02 12:59:55;;;;;;;2.13;0.70;;;29.20;93.90;;;;;;2603619;54;20767;31
2022/08/02 13:02:30;;;;;;;2.85;0.60;;;29.20;92.90;;;;;;2603172;54;20030;31
2022/08/02 13:05:06;;;;;;;;;;;29.20;92.90;;;;;;2603781;54;20896;31
2022/08/02 13:07:41;;;;;;;3.40;0.90;;;29.00;93.30;;;;;;2602982;54;19935;31
2022/08/02 13:10:16;;;;;;;3.80;1.00;;;28.90;93.00;;;;;;2603041;54;20330;31
2022/08/02 13:12:49;;;;;;;2.67;1.00;;;28.80;93.10;;;;;;2609785;39;20881;31
2022/08/02 13:15:27;;;;;;;1.95;0.95;;;28.80;92.20;;;;;;2603308;54;20798;31
2022/08/02 13:18:22;;;;;;;3.80;1.00;;;28.60;94.00;;;;;;2603215;54;20046;31
2022/08/02 13:21:05;;;;;;;2.13;0.90;;;28.50;94.40;;;;;;2603409;54;20826;31
2022/08/02 13:23:40;;;;;;;1.15;0.80;;;28.50;93.10;;;;;;2603144;54;20992;31
2022/08/02 13:26:29;;;;;;;2.55;0.77;;;28.40;93.20;;;;;;2603016;54;20514;31
2022/08/02 13:29:04;;;;;;;3.03;1.02;;;28.30;92.80;;;;;;2603238;54;20822;31
2022/08/02 13:31:42;;;;;;;4.00;1.20;;;28.30;92.50;;;;;;2603186;54;20085;31
2022/08/02 13:34:17;;;;;;;3.75;1.02;;;28.10;93.20;;;;;;2603073;54;20022;31
2022/08/02 13:36:52;;;;;;;1.48;0.55;;;28.00;92.80;;;;;;2603130;54;20921;31
2022/08/02 13:39:27;;;;;;;5.78;1.02;;;28.00;93.40;;;;;;2604074;47;20069;31
2022/08/02 13:42:01;;;;;;;;;;;27.90;94.00;;;;;;2604289;46;20030;31
2022/08/02 13:44:36;;;;;;;1.98;0.85;;;27.80;94.00;;;;;;2602996;54;20795;31
2022/08/02 13:47:16;;;;;;;2.33;0.97;;;27.80;93.30;;;;;;2603107;54;20026;31
2022/08/02 13:50:09;;;;;;;2.17;0.90;;;27.90;95.30;;;;;;2602899;54;20073;31
2022/08/02 13:52:45;;;;;;;3.95;1.20;;;27.90;93.20;;;;;;2603186;54;20089;31
2022/08/02 13:55:25;;;;;;;2.90;1.10;;;27.90;93.30;;;;;;2603001;54;20050;31
2022/08/02 13:58:01;;;;;;;2.20;1.05;;;27.80;93.20;;;;;;2603062;54;20861;31
2022/08/02 14:00:35;;;;;;;1.70;1.00;;;27.70;93.30;;;;;;2603947;46;20046;31
2022/08/02 14:03:12;;;;;;;2.67;1.00;;;27.70;93.50;;;;;;2602916;54;20033;31